sensor_id;sensor_type;location;lat;lon;timestamp;temperature;humidity
34061;DHT22;20336;-33.424;-70.638;2023-01-01T16:16:56;30.90;99.90
34061;DHT22;20336;-33.424;-70.638;2023-01-01T16:19:26;30.70;99.90
34061;DHT22;20336;-33.424;-70.638;2023-01-01T16:21:54;30.60;99.90
34061;DHT22;20336;-33.424;-70.638;2023-01-01T16:24:21;30.30;99.90
34061;DHT22;20336;-33.424;-70.638;2023-01-01T16:26:49;30.00;99.90
34061;DHT22;20336;-33.424;-70.638;2023-01-01T16:29:16;30.30;99.90
34061;DHT22;20336;-33.424;-70.638;2023-01-01T16:31:44;30.70;99.90
34061;DHT22;20336;-33.424;-70.638;2023-01-01T16:34:13;31.40;99.90
34061;DHT22;20336;-33.424;-70.638;2023-01-01T16:36:41;31.50;99.90
34061;DHT22;20336;-33.424;-70.638;2023-01-01T16:39:08;31.80;99.90
34061;DHT22;20336;-33.424;-70.638;2023-01-01T16:41:35;31.40;99.90
34061;DHT22;20336;-33.424;-70.638;2023-01-01T16:44:02;31.90;99.90
34061;DHT22;20336;-33.424;-70.638;2023-01-01T16:46:28;31.50;99.90
34061;DHT22;20336;-33.424;-70.638;2023-01-01T16:48:55;31.60;99.90
34061;DHT22;20336;-33.424;-70.638;2023-01-01T16:51:25;32.10;99.90
34061;DHT22;20336;-33.424;-70.638;2023-01-01T16:53:52;32.40;99.90
34061;DHT22;20336;-33.424;-70.638;2023-01-01T16:56:20;32.30;99.90
34061;DHT22;20336;-33.424;-70.638;2023-01-01T16:58:47;32.60;99.90
34061;DHT22;20336;-33.424;-70.638;2023-01-01T17:01:14;32.20;99.90
34061;DHT22;20336;-33.424;-70.638;2023-01-01T17:03:41;33.20;99.00
34061;DHT22;20336;-33.424;-70.638;2023-01-01T17:06:09;32.50;98.00
34061;DHT22;20336;-33.424;-70.638;2023-01-01T17:08:36;33.30;98.40
34061;DHT22;20336;-33.424;-70.638;2023-01-01T17:11:08;32.60;97.80
34061;DHT22;20336;-33.424;-70.638;2023-01-01T17:13:37;33.00;98.40
34061;DHT22;20336;-33.424;-70.638;2023-01-01T17:16:04;32.70;95.00
34061;DHT22;20336;-33.424;-70.638;2023-01-01T17:18:31;32.80;95.60
34061;DHT22;20336;-33.424;-70.638;2023-01-01T17:21:06;33.30;95.20
34061;DHT22;20336;-33.424;-70.638;2023-01-01T17:23:35;34.20;94.60
34061;DHT22;20336;-33.424;-70.638;2023-01-01T17:26:13;34.10;91.70
34061;DHT22;20336;-33.424;-70.638;2023-01-01T17:28:42;33.50;91.40
34061;DHT22;20336;-33.424;-70.638;2023-01-01T17:31:11;33.40;92.70
34061;DHT22;20336;-33.424;-70.638;2023-01-01T17:33:39;33.80;91.80
34061;DHT22;20336;-33.424;-70.638;2023-01-01T17:36:06;34.60;91.40
34061;DHT22;20336;-33.424;-70.638;2023-01-01T17:38:33;34.20;88.50
34061;DHT22;20336;-33.424;-70.638;2023-01-01T17:41:05;34.40;89.10
34061;DHT22;20336;-33.424;-70.638;2023-01-01T17:43:34;35.10;86.60
34061;DHT22;20336;-33.424;-70.638;2023-01-01T17:46:06;35.70;84.90
34061;DHT22;20336;-33.424;-70.638;2023-01-01T17:48:33;35.90;83.80
34061;DHT22;20336;-33.424;-70.638;2023-01-01T17:51:00;37.10;81.40
34061;DHT22;20336;-33.424;-70.638;2023-01-01T17:53:27;37.20;77.80
34061;DHT22;20336;-33.424;-70.638;2023-01-01T17:55:54;36.70;76.40
34061;DHT22;20336;-33.424;-70.638;2023-01-01T17:58:21;37.00;74.60
34061;DHT22;20336;-33.424;-70.638;2023-01-01T18:00:48;38.00;75.80
34061;DHT22;20336;-33.424;-70.638;2023-01-01T18:03:17;38.20;72.60
34061;DHT22;20336;-33.424;-70.638;2023-01-01T18:05:44;38.00;69.50
34061;DHT22;20336;-33.424;-70.638;2023-01-01T18:08:11;37.20;71.00
34061;DHT22;20336;-33.424;-70.638;2023-01-01T18:10:38;37.30;71.50
34061;DHT22;20336;-33.424;-70.638;2023-01-01T18:13:05;37.60;70.30
34061;DHT22;20336;-33.424;-70.638;2023-01-01T18:15:34;38.80;67.60
34061;DHT22;20336;-33.424;-70.638;2023-01-01T18:18:02;38.50;65.40
34061;DHT22;20336;-33.424;-70.638;2023-01-01T18:20:29;37.90;65.00
34061;DHT22;20336;-33.424;-70.638;2023-01-01T18:22:56;37.90;65.90
34061;DHT22;20336;-33.424;-70.638;2023-01-01T18:25:22;37.60;64.80
34061;DHT22;20336;-33.424;-70.638;2023-01-01T22:42:40;32.40;74.70
34061;DHT22;20336;-33.424;-70.638;2023-01-01T22:45:14;32.40;75.40
34061;DHT22;20336;-33.424;-70.638;2023-01-01T22:47:42;32.60;76.10
34061;DHT22;20336;-33.424;-70.638;2023-01-01T22:50:22;32.70;76.10
34061;DHT22;20336;-33.424;-70.638;2023-01-01T22:52:50;32.30;77.30
34061;DHT22;20336;-33.424;-70.638;2023-01-01T22:55:17;32.10;77.60
34061;DHT22;20336;-33.424;-70.638;2023-01-01T22:57:44;31.60;78.60
34061;DHT22;20336;-33.424;-70.638;2023-01-01T23:00:12;31.60;79.50
34061;DHT22;20336;-33.424;-70.638;2023-01-01T23:02:39;31.80;79.30
34061;DHT22;20336;-33.424;-70.638;2023-01-01T23:05:06;31.70;79.60
34061;DHT22;20336;-33.424;-70.638;2023-01-01T23:07:33;31.10;80.50
34061;DHT22;20336;-33.424;-70.638;2023-01-01T23:10:02;30.50;81.80
34061;DHT22;20336;-33.424;-70.638;2023-01-01T23:12:29;29.60;83.80
34061;DHT22;20336;-33.424;-70.638;2023-01-01T23:14:56;28.80;86.10
34061;DHT22;20336;-33.424;-70.638;2023-01-01T23:17:42;28.50;87.40
34061;DHT22;20336;-33.424;-70.638;2023-01-01T23:20:09;28.10;89.60
34061;DHT22;20336;-33.424;-70.638;2023-01-01T23:22:39;27.90;90.70
34061;DHT22;20336;-33.424;-70.638;2023-01-01T23:25:10;27.70;91.20
34061;DHT22;20336;-33.424;-70.638;2023-01-01T23:27:39;27.70;91.80
34061;DHT22;20336;-33.424;-70.638;2023-01-01T23:30:06;27.60;92.20
34061;DHT22;20336;-33.424;-70.638;2023-01-01T23:32:34;27.40;93.60
34061;DHT22;20336;-33.424;-70.638;2023-01-01T23:35:02;27.40;94.10
34061;DHT22;20336;-33.424;-70.638;2023-01-01T23:37:29;27.20;94.30
34061;DHT22;20336;-33.424;-70.638;2023-01-01T23:39:56;27.20;94.70
34061;DHT22;20336;-33.424;-70.638;2023-01-01T23:42:23;26.90;95.40
34061;DHT22;20336;-33.424;-70.638;2023-01-01T23:44:50;26.80;96.20
34061;DHT22;20336;-33.424;-70.638;2023-01-01T23:47:16;26.60;97.10
34061;DHT22;20336;-33.424;-70.638;2023-01-01T23:49:43;26.50;97.20
34061;DHT22;20336;-33.424;-70.638;2023-01-01T23:52:10;26.50;98.00
34061;DHT22;20336;-33.424;-70.638;2023-01-01T23:54:37;26.30;98.40
34061;DHT22;20336;-33.424;-70.638;2023-01-01T23:57:04;26.20;99.30
34061;DHT22;20336;-33.424;-70.638;2023-01-01T23:59:31;26.10;99.90
